createdAt,value
2023-05-17T00:01:45.889Z,1.73
2023-05-17T00:04:12.553Z,1.45
2023-05-17T00:06:39.267Z,1.92
2023-05-17T00:09:05.848Z,1.77
2023-05-17T00:11:32.434Z,1.73
2023-05-17T00:13:59.019Z,2.05
2023-05-17T00:16:25.593Z,1.98
2023-05-17T00:18:52.292Z,1.25
2023-05-17T00:21:19.062Z,1.75
2023-05-17T00:23:45.699Z,2.20
2023-05-17T00:26:13.807Z,2.35
2023-05-17T00:28:40.433Z,2.10
2023-05-17T00:31:07.010Z,1.70
2023-05-17T00:33:33.586Z,1.85
2023-05-17T00:36:00.139Z,1.52
2023-05-17T00:38:26.672Z,1.88
2023-05-17T00:40:54.327Z,1.60
2023-05-17T00:43:21.001Z,2.35
2023-05-17T00:45:49.422Z,1.95
2023-05-17T00:48:16.421Z,1.75
2023-05-17T00:50:43.220Z,1.42
2023-05-17T00:53:10.026Z,2.08
2023-05-17T00:55:36.566Z,2.17
2023-05-17T00:58:03.347Z,1.75
2023-05-17T01:00:30.041Z,1.05
2023-05-17T01:02:56.652Z,1.92
2023-05-17T01:05:23.235Z,2.28
2023-05-17T01:07:50.152Z,2.63
2023-05-17T01:10:16.846Z,2.05
2023-05-17T01:12:51.153Z,1.67
2023-05-17T01:15:17.685Z,1.90
2023-05-17T01:17:58.464Z,1.55
2023-05-17T01:20:28.205Z,1.85
2023-05-17T01:22:55.013Z,2.05
2023-05-17T01:25:28.716Z,1.85
2023-05-17T01:30:23.102Z,1.73
2023-05-17T01:32:53.201Z,2.17
2023-05-17T01:35:19.810Z,1.65
2023-05-17T01:37:46.366Z,1.60
2023-05-17T01:40:13.037Z,1.92
2023-05-17T01:42:41.917Z,2.05
2023-05-17T01:45:20.422Z,2.50
2023-05-17T01:48:05.585Z,2.10
2023-05-17T01:50:33.054Z,2.33
2023-05-17T01:53:05.842Z,2.15
2023-05-17T01:55:44.501Z,2.17
2023-05-17T01:58:11.690Z,1.88
2023-05-17T02:00:39.506Z,1.42
2023-05-17T02:03:06.403Z,2.28
2023-05-17T02:05:33.032Z,1.90
2023-05-17T02:07:59.597Z,2.67
2023-05-17T02:10:26.126Z,2.55
2023-05-17T02:12:52.689Z,1.90
2023-05-17T02:15:19.231Z,1.38
2023-05-17T02:17:46.048Z,1.98
2023-05-17T02:20:13.055Z,2.05
2023-05-17T02:22:39.599Z,1.48
2023-05-17T02:25:07.069Z,1.63
2023-05-17T02:27:33.662Z,1.63
2023-05-17T02:30:02.090Z,2.03
2023-05-17T02:32:29.253Z,1.55
2023-05-17T02:34:56.050Z,2.15
2023-05-17T02:37:22.619Z,1.45
2023-05-17T02:39:49.136Z,2.28
2023-05-17T02:42:15.784Z,2.38
2023-05-17T02:44:42.382Z,1.77
2023-05-17T02:47:09.016Z,1.05
2023-05-17T02:49:35.626Z,1.63
2023-05-17T02:52:02.527Z,2.30
2023-05-17T02:54:29.752Z,1.90
2023-05-17T02:56:56.335Z,2.55
2023-05-17T02:59:22.849Z,1.30
2023-05-17T03:01:50.314Z,1.73
2023-05-17T03:04:16.909Z,1.40
2023-05-17T03:06:43.482Z,1.63
2023-05-17T03:09:10.029Z,1.83
2023-05-17T03:11:36.580Z,1.60
2023-05-17T03:14:03.241Z,2.03
2023-05-17T03:16:29.803Z,1.70
2023-05-17T03:18:56.482Z,1.92
2023-05-17T03:21:23.086Z,1.40
2023-05-17T03:23:49.629Z,2.28
2023-05-17T03:26:16.454Z,1.60
2023-05-17T03:28:42.975Z,2.03
2023-05-17T03:31:09.583Z,2.08
2023-05-17T03:33:36.159Z,1.70
2023-05-17T03:36:02.906Z,1.30
2023-05-17T03:38:29.663Z,1.73
2023-05-17T03:40:56.187Z,2.22
2023-05-17T03:43:22.926Z,2.30
2023-05-17T03:45:49.572Z,2.60
2023-05-17T03:48:16.284Z,1.92
2023-05-17T03:50:42.924Z,1.70
2023-05-17T03:53:09.657Z,1.83
2023-05-17T03:55:36.254Z,2.83
2023-05-17T03:58:02.831Z,2.10
2023-05-17T04:00:29.374Z,1.73
2023-05-17T04:02:55.986Z,1.77
2023-05-17T04:05:22.713Z,1.73
2023-05-17T04:07:49.394Z,2.08
2023-05-17T04:10:16.339Z,2.45
2023-05-17T04:12:42.859Z,2.00
2023-05-17T04:15:09.693Z,2.60
2023-05-17T04:17:36.471Z,2.40
2023-05-17T04:20:04.200Z,2.53
2023-05-17T04:22:30.766Z,2.50
2023-05-17T04:24:57.299Z,2.10
2023-05-17T04:27:23.918Z,1.83
2023-05-17T04:29:50.567Z,2.90
2023-05-17T04:32:17.757Z,2.40
2023-05-17T04:34:44.366Z,1.52
2023-05-17T04:37:11.077Z,1.92
2023-05-17T04:39:37.663Z,1.92
2023-05-17T04:42:04.689Z,1.80
2023-05-17T04:44:31.270Z,2.33
2023-05-17T04:46:57.930Z,1.92
2023-05-17T04:49:25.378Z,2.38
2023-05-17T04:51:51.974Z,1.23
2023-05-17T04:54:18.569Z,2.20
2023-05-17T04:56:45.085Z,1.60
2023-05-17T04:59:11.919Z,1.90
2023-05-17T05:01:38.452Z,1.92
2023-05-17T05:04:07.238Z,3.08
2023-05-17T05:06:34.252Z,2.00
2023-05-17T05:09:01.595Z,2.33
2023-05-17T05:11:28.185Z,1.75
2023-05-17T05:13:54.780Z,2.28
2023-05-17T05:16:21.376Z,1.75
2023-05-17T05:18:48.140Z,2.20
2023-05-17T05:21:14.918Z,1.77
2023-05-17T05:23:41.448Z,2.00
2023-05-17T05:26:08.137Z,2.10
2023-05-17T05:28:34.730Z,1.50
2023-05-17T05:31:01.413Z,2.20
2023-05-17T05:33:28.632Z,1.73
2023-05-17T05:35:55.298Z,2.10
2023-05-17T05:38:21.939Z,2.75
2023-05-17T05:40:48.515Z,2.33
2023-05-17T05:43:15.844Z,1.73
2023-05-17T05:45:46.029Z,2.38
2023-05-17T05:48:15.628Z,1.90
2023-05-17T05:50:45.593Z,2.45
2023-05-17T05:53:18.919Z,1.88
2023-05-17T05:55:46.289Z,2.47
2023-05-17T05:58:12.878Z,2.58
2023-05-17T06:00:39.419Z,2.75
2023-05-17T06:03:06.559Z,2.25
2023-05-17T06:05:33.394Z,2.35
2023-05-17T06:08:00.163Z,2.42
2023-05-17T06:10:27.096Z,2.33
2023-05-17T06:12:53.830Z,1.98
2023-05-17T06:15:20.458Z,2.55
2023-05-17T06:17:47.026Z,2.45
2023-05-17T06:20:16.016Z,2.42
2023-05-17T06:22:45.624Z,2.33
2023-05-17T06:25:12.200Z,1.80
2023-05-17T06:27:38.912Z,2.30
2023-05-17T06:30:07.456Z,1.55
2023-05-17T06:32:34.328Z,2.00
2023-05-17T06:35:00.995Z,2.17
2023-05-17T06:37:27.606Z,2.17
2023-05-17T06:40:00.133Z,2.10
2023-05-17T06:42:30.859Z,1.40
2023-05-17T06:44:57.434Z,2.40
2023-05-17T06:47:24.524Z,1.85
2023-05-17T06:49:51.159Z,2.35
2023-05-17T06:52:17.748Z,2.03
2023-05-17T06:54:44.261Z,2.50
2023-05-17T06:57:10.885Z,1.67
2023-05-17T06:59:37.454Z,2.22
2023-05-17T07:02:04.057Z,2.72
2023-05-17T07:04:30.906Z,1.60
2023-05-17T07:06:57.497Z,2.10
2023-05-17T07:09:24.109Z,2.20
2023-05-17T07:11:50.738Z,2.47
2023-05-17T07:14:17.338Z,1.95
2023-05-17T07:16:43.856Z,1.55
2023-05-17T07:19:10.507Z,1.73
2023-05-17T07:21:37.113Z,2.25
2023-05-17T07:24:03.679Z,2.78
2023-05-17T07:26:30.253Z,2.20
2023-05-17T07:28:56.807Z,1.70
2023-05-17T07:31:23.336Z,2.55
2023-05-17T07:33:50.064Z,2.00
2023-05-17T07:36:16.670Z,1.80
2023-05-17T07:38:43.284Z,2.10
2023-05-17T07:41:12.535Z,2.00
2023-05-17T07:43:39.106Z,2.10
2023-05-17T07:46:05.799Z,2.10
2023-05-17T07:48:32.499Z,1.67
2023-05-17T07:50:59.202Z,1.75
2023-05-17T07:53:25.831Z,2.80
2023-05-17T07:55:52.494Z,2.85
2023-05-17T07:58:19.082Z,1.60
2023-05-17T08:00:45.758Z,2.10
2023-05-17T08:03:14.013Z,1.60
2023-05-17T08:05:41.628Z,1.83
2023-05-17T08:08:08.217Z,2.17
2023-05-17T08:10:37.990Z,1.77
2023-05-17T08:13:06.299Z,2.33
2023-05-17T08:15:32.855Z,1.48
2023-05-17T08:18:00.400Z,1.58
2023-05-17T08:20:28.709Z,2.67
2023-05-17T08:22:55.238Z,2.20
2023-05-17T08:25:21.845Z,1.88
2023-05-17T08:27:48.432Z,1.60
2023-05-17T08:30:27.823Z,1.95
2023-05-17T08:32:56.749Z,1.95
2023-05-17T08:35:24.928Z,1.63
2023-05-17T08:37:52.915Z,1.60
2023-05-17T08:40:21.359Z,2.17
2023-05-17T08:42:48.599Z,1.35
2023-05-17T08:45:15.237Z,2.33
2023-05-17T08:47:43.231Z,1.95
2023-05-17T08:50:11.313Z,1.60
2023-05-17T08:52:38.298Z,1.58
2023-05-17T08:55:06.286Z,1.67
2023-05-17T08:57:33.917Z,1.60
2023-05-17T09:00:01.105Z,1.50
2023-05-17T09:02:29.825Z,1.50
2023-05-17T09:04:57.641Z,1.38
2023-05-17T09:07:24.418Z,1.45
2023-05-17T09:09:53.035Z,2.80
2023-05-17T09:12:25.440Z,1.88
2023-05-17T09:14:52.437Z,1.85
2023-05-17T09:17:19.999Z,1.35
2023-05-17T09:19:47.528Z,1.60
2023-05-17T09:22:15.485Z,1.40
2023-05-17T09:24:42.536Z,1.98
2023-05-17T09:27:09.449Z,1.60
2023-05-17T09:29:36.424Z,1.92
2023-05-17T09:32:21.015Z,1.58
2023-05-17T09:34:48.536Z,1.90
2023-05-17T09:37:16.826Z,2.00
2023-05-17T09:39:45.049Z,2.30
2023-05-17T09:42:15.192Z,2.28
2023-05-17T09:44:47.918Z,1.98
2023-05-17T09:47:35.397Z,1.67
2023-05-17T09:50:03.777Z,1.98
2023-05-17T09:52:35.234Z,1.70
2023-05-17T09:55:02.000Z,2.25
2023-05-17T09:57:29.206Z,1.42
2023-05-17T09:59:57.487Z,1.88
2023-05-17T10:02:28.223Z,1.88
2023-05-17T10:04:56.367Z,2.20
2023-05-17T10:07:26.125Z,2.05
2023-05-17T10:09:56.336Z,2.40
2023-05-17T10:12:25.008Z,1.90
2023-05-17T10:14:55.957Z,1.90
2023-05-17T10:17:23.898Z,2.45
2023-05-17T10:19:50.600Z,1.70
2023-05-17T10:22:23.055Z,2.60
2023-05-17T10:24:51.701Z,1.83
2023-05-17T10:27:18.558Z,2.35
2023-05-17T10:29:47.759Z,1.58
2023-05-17T10:32:17.522Z,2.17
2023-05-17T10:34:45.716Z,1.83
2023-05-17T10:37:14.072Z,1.98
2023-05-17T10:39:43.730Z,2.42
2023-05-17T10:44:40.425Z,2.92
2023-05-17T10:47:08.883Z,2.35
2023-05-17T10:49:37.473Z,2.15
2023-05-17T10:52:16.912Z,2.22
2023-05-17T10:54:44.183Z,2.25
2023-05-17T10:57:19.922Z,1.83
2023-05-17T10:59:56.163Z,2.20
2023-05-17T11:02:23.997Z,1.83
2023-05-17T11:04:54.000Z,2.65
2023-05-17T11:07:28.193Z,2.42
2023-05-17T11:12:35.437Z,1.80
2023-05-17T11:15:08.558Z,1.70
2023-05-17T11:17:37.102Z,1.92
2023-05-17T11:20:06.811Z,1.73
2023-05-17T11:22:43.687Z,1.83
2023-05-17T11:25:11.642Z,1.77
2023-05-17T11:27:39.779Z,2.28
2023-05-17T11:30:10.627Z,2.22
2023-05-17T11:32:37.247Z,1.75
2023-05-17T11:35:04.037Z,2.13
2023-05-17T11:37:31.310Z,2.40
2023-05-17T11:40:08.392Z,2.08
2023-05-17T11:42:35.880Z,2.30
2023-05-17T11:45:02.598Z,2.15
2023-05-17T11:47:29.665Z,1.88
2023-05-17T11:49:56.699Z,2.35
2023-05-17T11:52:23.484Z,2.53
2023-05-17T11:54:50.146Z,2.28
2023-05-17T11:57:18.193Z,2.85
2023-05-17T11:59:44.724Z,2.90
2023-05-17T12:02:25.830Z,2.15
2023-05-17T12:04:52.455Z,2.35
2023-05-17T12:07:19.062Z,2.10
2023-05-17T12:09:46.305Z,1.88
2023-05-17T12:12:12.873Z,2.22
2023-05-17T12:14:43.026Z,2.20
2023-05-17T12:17:12.167Z,2.10
2023-05-17T12:19:38.874Z,1.67
2023-05-17T12:22:07.417Z,2.22
2023-05-17T12:24:41.266Z,2.30
2023-05-17T12:27:08.546Z,1.80
2023-05-17T12:29:35.114Z,1.90
2023-05-17T12:32:02.053Z,2.17
2023-05-17T12:34:29.728Z,2.15
2023-05-17T12:36:56.586Z,2.40
2023-05-17T12:39:24.259Z,1.85
2023-05-17T12:41:54.179Z,1.77
2023-05-17T12:44:20.994Z,1.73
2023-05-17T12:46:54.012Z,2.10
2023-05-17T12:49:23.756Z,2.58
2023-05-17T12:51:50.417Z,2.05
2023-05-17T12:54:29.488Z,2.20
2023-05-17T12:56:56.705Z,2.78
2023-05-17T12:59:26.291Z,2.70
2023-05-17T13:01:55.820Z,2.53
2023-05-17T13:04:29.669Z,2.58
2023-05-17T13:07:00.242Z,2.40
2023-05-17T13:09:28.924Z,2.40
2023-05-17T13:11:56.712Z,2.00
2023-05-17T13:14:40.678Z,2.65
2023-05-17T13:17:09.513Z,3.60
2023-05-17T13:19:36.895Z,2.50
2023-05-17T13:22:04.006Z,2.90
2023-05-17T13:24:31.647Z,2.38
2023-05-17T13:26:58.160Z,2.50
2023-05-17T13:29:38.120Z,2.83
2023-05-17T13:32:07.011Z,2.45
2023-05-17T13:34:33.535Z,2.50
2023-05-17T13:37:00.123Z,2.58
2023-05-17T13:39:26.659Z,2.22
2023-05-17T13:41:53.406Z,2.08
2023-05-17T13:44:19.948Z,2.63
2023-05-17T13:46:46.496Z,2.67
2023-05-17T13:49:13.194Z,2.33
2023-05-17T13:51:39.900Z,2.97
2023-05-17T13:54:07.378Z,3.08
2023-05-17T13:56:34.127Z,2.95
2023-05-17T13:59:01.015Z,3.40
2023-05-17T14:01:27.705Z,3.38
2023-05-17T14:03:55.471Z,3.20
2023-05-17T14:06:22.194Z,3.17
2023-05-17T14:08:49.744Z,4.40
2023-05-17T14:11:16.302Z,4.15
2023-05-17T14:13:43.114Z,3.55
2023-05-17T14:16:09.790Z,4.05
2023-05-17T14:18:36.981Z,3.95
2023-05-17T14:21:03.741Z,3.47
2023-05-17T14:23:30.462Z,3.88
2023-05-17T14:25:57.907Z,3.28
2023-05-17T14:28:24.552Z,3.70
2023-05-17T14:30:51.888Z,3.45
2023-05-17T14:33:18.679Z,2.75
2023-05-17T14:35:45.315Z,3.63
2023-05-17T14:38:11.906Z,3.40
2023-05-17T14:40:38.484Z,2.85
2023-05-17T14:43:05.183Z,3.00
2023-05-17T14:45:31.956Z,2.97
2023-05-17T14:47:58.619Z,3.90
2023-05-17T14:50:25.212Z,3.17
2023-05-17T14:52:51.911Z,2.60
2023-05-17T14:55:18.832Z,2.75
2023-05-17T14:57:46.013Z,2.50
2023-05-17T15:00:13.710Z,2.88
2023-05-17T15:02:40.403Z,3.13
2023-05-17T15:05:07.265Z,2.67
2023-05-17T15:07:34.453Z,2.75
2023-05-17T15:10:01.483Z,2.95
2023-05-17T15:12:28.474Z,3.35
2023-05-17T15:14:55.344Z,2.85
2023-05-17T15:17:22.373Z,3.15
2023-05-17T15:19:49.200Z,3.30
2023-05-17T15:22:15.850Z,2.67
2023-05-17T15:24:42.476Z,2.90
2023-05-17T15:27:09.247Z,2.97
2023-05-17T15:29:38.899Z,3.42
2023-05-17T15:32:05.774Z,2.88
2023-05-17T15:34:32.629Z,3.08
2023-05-17T15:36:59.210Z,2.63
2023-05-17T15:39:25.921Z,2.78
2023-05-17T15:41:52.477Z,3.55
2023-05-17T15:44:19.432Z,3.28
2023-05-17T15:46:46.360Z,3.35
2023-05-17T15:49:13.107Z,3.25
2023-05-17T15:51:39.739Z,3.15
2023-05-17T15:54:06.624Z,3.33
2023-05-17T15:56:33.292Z,4.10
2023-05-17T15:59:02.392Z,3.63
2023-05-17T16:01:29.315Z,3.50
2023-05-17T16:03:55.994Z,3.15
2023-05-17T16:06:22.612Z,4.15
2023-05-17T16:08:49.250Z,4.18
2023-05-17T16:11:16.066Z,4.15
2023-05-17T16:13:42.992Z,4.75
2023-05-17T16:16:10.708Z,4.43
2023-05-17T16:18:37.346Z,4.10
2023-05-17T16:21:04.475Z,4.30
2023-05-17T16:23:31.387Z,4.00
2023-05-17T16:25:58.085Z,4.10
2023-05-17T16:28:24.865Z,4.18
2023-05-17T16:30:51.841Z,3.95
2023-05-17T16:33:20.597Z,4.00
2023-05-17T16:35:48.695Z,3.85
2023-05-17T16:38:15.948Z,4.07
2023-05-17T16:40:42.540Z,3.47
2023-05-17T16:43:09.102Z,3.15
2023-05-17T16:45:35.679Z,4.05
2023-05-17T16:48:02.398Z,3.45
2023-05-17T16:50:29.208Z,3.88
2023-05-17T16:52:55.960Z,3.65
2023-05-17T16:55:22.556Z,3.83
2023-05-17T16:57:49.188Z,3.88
2023-05-17T17:00:15.995Z,3.08
2023-05-17T17:02:42.621Z,3.47
2023-05-17T17:05:10.397Z,3.38
2023-05-17T17:07:37.042Z,3.67
2023-05-17T17:10:03.687Z,3.65
2023-05-17T17:12:30.281Z,3.20
2023-05-17T17:14:56.838Z,2.95
2023-05-17T17:17:23.406Z,3.47
2023-05-17T17:19:50.011Z,3.72
2023-05-17T17:22:16.814Z,3.25
2023-05-17T17:24:44.523Z,3.45
2023-05-17T17:27:11.152Z,2.70
2023-05-17T17:29:37.730Z,3.00
2023-05-17T17:32:05.161Z,3.13
2023-05-17T17:34:31.763Z,3.38
2023-05-17T17:36:58.327Z,3.67
2023-05-17T17:39:24.902Z,4.25
2023-05-17T17:41:51.514Z,3.80
2023-05-17T17:44:18.151Z,3.60
2023-05-17T17:46:44.741Z,4.13
2023-05-17T17:49:11.338Z,4.57
2023-05-17T17:51:37.882Z,3.58
2023-05-17T17:54:05.584Z,2.95
2023-05-17T17:56:32.907Z,3.60
2023-05-17T17:58:59.895Z,3.60
2023-05-17T18:01:26.737Z,3.42
2023-05-17T18:03:53.491Z,3.35
2023-05-17T18:06:20.014Z,3.22
2023-05-17T18:08:46.668Z,4.40
2023-05-17T18:11:13.350Z,3.45
2023-05-17T18:13:39.945Z,3.83
2023-05-17T18:16:06.788Z,3.00
2023-05-17T18:18:33.617Z,3.47
2023-05-17T18:21:00.240Z,3.30
2023-05-17T18:23:26.848Z,3.05
2023-05-17T18:25:53.389Z,3.53
2023-05-17T18:28:29.706Z,3.95
2023-05-17T18:31:04.530Z,3.08
2023-05-17T18:33:31.747Z,3.35
2023-05-17T18:35:58.385Z,3.13
2023-05-17T18:38:24.952Z,3.15
2023-05-17T18:40:51.492Z,3.47
2023-05-17T18:43:18.136Z,11.40
2023-05-17T18:48:11.305Z,4.78
2023-05-17T18:50:37.948Z,3.88
2023-05-17T18:53:04.519Z,4.30
2023-05-17T18:55:31.039Z,3.60
2023-05-17T18:57:57.636Z,3.67
2023-05-17T19:00:24.244Z,3.65
2023-05-17T19:02:50.815Z,3.55
2023-05-17T19:05:17.418Z,3.97
2023-05-17T19:07:44.490Z,3.45
2023-05-17T19:10:11.207Z,4.47
2023-05-17T19:12:37.800Z,3.72
2023-05-17T19:15:04.617Z,3.25
2023-05-17T19:17:31.233Z,3.95
2023-05-17T19:19:57.917Z,3.78
2023-05-17T19:22:24.503Z,3.50
2023-05-17T19:24:51.176Z,3.67
2023-05-17T19:27:19.667Z,3.70
2023-05-17T19:29:48.102Z,2.97
2023-05-17T19:32:14.963Z,3.95
2023-05-17T19:34:41.541Z,3.78
2023-05-17T19:37:08.121Z,3.33
2023-05-17T19:39:34.720Z,3.25
2023-05-17T19:42:01.305Z,3.83
2023-05-17T19:44:27.824Z,4.30
2023-05-17T19:46:54.468Z,3.65
2023-05-17T19:49:21.084Z,3.83
2023-05-17T19:51:48.242Z,3.75
2023-05-17T19:54:14.829Z,3.58
2023-05-17T19:56:41.634Z,3.58
2023-05-17T19:59:09.549Z,3.72
2023-05-17T20:01:36.243Z,6.63
2023-05-17T20:04:02.919Z,25.85
2023-05-17T20:06:29.521Z,5.95
2023-05-17T20:08:56.223Z,4.63
2023-05-17T20:11:22.794Z,4.20
2023-05-17T20:13:49.357Z,5.03
2023-05-17T20:16:15.979Z,3.60
2023-05-17T20:18:43.453Z,3.42
2023-05-17T20:21:12.778Z,3.80
2023-05-17T20:23:39.547Z,4.70
2023-05-17T20:26:06.324Z,4.57
2023-05-17T20:28:32.840Z,4.28
2023-05-17T20:30:59.524Z,9.00
2023-05-17T20:33:26.542Z,19.05
2023-05-17T20:35:53.775Z,12.23
2023-05-17T20:38:20.722Z,8.27
2023-05-17T20:40:47.414Z,14.60
2023-05-17T20:43:14.616Z,11.05
2023-05-17T20:45:41.291Z,7.93
2023-05-17T20:48:08.198Z,6.35
2023-05-17T20:50:34.791Z,5.15
2023-05-17T20:53:01.530Z,5.90
2023-05-17T20:55:28.205Z,5.47
2023-05-17T20:57:55.084Z,5.90
2023-05-17T21:00:21.617Z,5.55
2023-05-17T21:02:48.260Z,6.00
2023-05-17T21:05:15.093Z,7.15
2023-05-17T21:07:41.820Z,5.43
2023-05-17T21:10:08.924Z,6.25
2023-05-17T21:12:36.126Z,7.15
2023-05-17T21:15:15.999Z,7.22
2023-05-17T21:17:43.857Z,8.77
2023-05-17T21:20:10.898Z,12.60
2023-05-17T21:22:37.795Z,7.15
2023-05-17T21:25:04.695Z,11.30
2023-05-17T21:27:31.299Z,5.72
2023-05-17T21:29:57.819Z,6.22
2023-05-17T21:32:24.395Z,15.13
2023-05-17T21:34:53.756Z,8.40
2023-05-17T21:37:21.390Z,8.80
2023-05-17T21:39:47.933Z,8.35
2023-05-17T21:42:14.521Z,9.98
2023-05-17T21:44:41.179Z,18.48
2023-05-17T21:47:07.912Z,8.30
2023-05-17T21:49:34.629Z,6.75
2023-05-17T21:52:01.185Z,22.05
2023-05-17T21:54:27.715Z,12.93
2023-05-17T21:56:54.248Z,7.68
2023-05-17T21:59:20.877Z,6.05
2023-05-17T22:01:47.500Z,7.15
2023-05-17T22:04:14.063Z,6.70
2023-05-17T22:06:40.734Z,8.43
2023-05-17T22:09:07.351Z,6.85
2023-05-17T22:11:38.307Z,7.32
2023-05-17T22:14:08.410Z,8.00
2023-05-17T22:16:35.937Z,20.17
2023-05-17T22:19:03.883Z,9.20
2023-05-17T22:21:31.990Z,6.60
2023-05-17T22:23:59.050Z,6.65
2023-05-17T22:26:25.879Z,9.10
2023-05-17T22:28:52.471Z,7.85
2023-05-17T22:31:19.760Z,6.40
2023-05-17T22:33:46.494Z,6.50
2023-05-17T22:36:17.371Z,5.32
2023-05-17T22:38:44.048Z,4.78
2023-05-17T22:41:11.069Z,5.30
2023-05-17T22:43:37.678Z,5.60
2023-05-17T22:46:04.454Z,5.55
2023-05-17T22:48:32.135Z,5.75
2023-05-17T22:51:01.785Z,6.78
2023-05-17T22:53:28.828Z,5.53
2023-05-17T22:55:55.639Z,7.65
2023-05-17T22:58:25.861Z,8.32
2023-05-17T23:00:52.703Z,6.55
2023-05-17T23:03:19.741Z,5.78
2023-05-17T23:05:46.349Z,7.03
2023-05-17T23:08:13.873Z,5.03
2023-05-17T23:10:40.442Z,15.63
2023-05-17T23:13:07.058Z,7.18
2023-05-17T23:15:34.372Z,11.07
2023-05-17T23:18:01.085Z,6.18
2023-05-17T23:20:27.710Z,5.30
2023-05-17T23:22:54.269Z,4.65
2023-05-17T23:25:20.887Z,5.05
2023-05-17T23:27:50.273Z,4.35
2023-05-17T23:30:16.962Z,5.10
2023-05-17T23:32:47.161Z,6.10
2023-05-17T23:35:13.860Z,4.07
2023-05-17T23:37:40.455Z,4.50
2023-05-17T23:40:07.401Z,4.68
2023-05-17T23:42:34.046Z,4.93
2023-05-17T23:45:01.068Z,4.15
2023-05-17T23:47:33.776Z,5.00
2023-05-17T23:50:00.735Z,4.30
2023-05-17T23:52:30.029Z,4.93
2023-05-17T23:54:59.349Z,4.93
2023-05-17T23:57:26.157Z,7.38
2023-05-17T23:59:52.723Z,6.07
